sensor_id;sensor_type;location;lat;lon;timestamp;temperature;humidity
25200;DHT22;33094;48.782;9.162;2023-06-10T00:01:23;19.30;93.40
25200;DHT22;33094;48.782;9.162;2023-06-10T00:03:50;19.30;93.50
25200;DHT22;33094;48.782;9.162;2023-06-10T00:06:15;19.30;93.50
25200;DHT22;33094;48.782;9.162;2023-06-10T00:08:41;19.30;93.50
25200;DHT22;33094;48.782;9.162;2023-06-10T00:11:07;19.40;93.50
25200;DHT22;33094;48.782;9.162;2023-06-10T00:13:33;19.30;93.50
25200;DHT22;33094;48.782;9.162;2023-06-10T00:15:58;19.40;93.60
25200;DHT22;33094;48.782;9.162;2023-06-10T00:18:24;19.30;93.70
25200;DHT22;33094;48.782;9.162;2023-06-10T00:20:52;19.30;93.70
25200;DHT22;33094;48.782;9.162;2023-06-10T00:23:20;19.30;93.60
25200;DHT22;33094;48.782;9.162;2023-06-10T00:25:46;19.30;93.70
25200;DHT22;33094;48.782;9.162;2023-06-10T00:28:11;19.30;93.60
25200;DHT22;33094;48.782;9.162;2023-06-10T00:30:38;19.30;93.70
25200;DHT22;33094;48.782;9.162;2023-06-10T00:33:04;19.30;93.80
25200;DHT22;33094;48.782;9.162;2023-06-10T00:35:29;19.30;93.80
25200;DHT22;33094;48.782;9.162;2023-06-10T00:37:55;19.30;93.90
25200;DHT22;33094;48.782;9.162;2023-06-10T00:40:21;19.20;94.00
25200;DHT22;33094;48.782;9.162;2023-06-10T00:42:46;19.20;94.20
25200;DHT22;33094;48.782;9.162;2023-06-10T00:45:11;19.10;94.40
25200;DHT22;33094;48.782;9.162;2023-06-10T00:47:37;19.00;94.50
25200;DHT22;33094;48.782;9.162;2023-06-10T00:50:03;19.00;94.50
25200;DHT22;33094;48.782;9.162;2023-06-10T00:52:29;18.90;94.60
25200;DHT22;33094;48.782;9.162;2023-06-10T00:54:58;18.90;94.60
25200;DHT22;33094;48.782;9.162;2023-06-10T00:57:24;18.80;94.70
25200;DHT22;33094;48.782;9.162;2023-06-10T00:59:50;18.70;94.80
25200;DHT22;33094;48.782;9.162;2023-06-10T01:02:16;18.70;94.90
25200;DHT22;33094;48.782;9.162;2023-06-10T01:04:42;18.60;95.00
25200;DHT22;33094;48.782;9.162;2023-06-10T01:07:26;18.60;95.10
25200;DHT22;33094;48.782;9.162;2023-06-10T01:09:54;18.60;95.10
25200;DHT22;33094;48.782;9.162;2023-06-10T01:12:38;18.60;95.30
25200;DHT22;33094;48.782;9.162;2023-06-10T01:15:05;18.50;95.40
25200;DHT22;33094;48.782;9.162;2023-06-10T01:17:30;18.50;95.40
25200;DHT22;33094;48.782;9.162;2023-06-10T01:19:57;18.50;95.40
25200;DHT22;33094;48.782;9.162;2023-06-10T01:22:24;18.50;95.50
25200;DHT22;33094;48.782;9.162;2023-06-10T01:24:51;18.40;95.50
25200;DHT22;33094;48.782;9.162;2023-06-10T01:27:18;18.40;95.60
25200;DHT22;33094;48.782;9.162;2023-06-10T01:29:45;18.40;95.70
25200;DHT22;33094;48.782;9.162;2023-06-10T01:32:18;18.30;95.80
25200;DHT22;33094;48.782;9.162;2023-06-10T01:34:46;18.30;95.80
25200;DHT22;33094;48.782;9.162;2023-06-10T01:37:13;18.30;95.80
25200;DHT22;33094;48.782;9.162;2023-06-10T01:39:41;18.30;95.80
25200;DHT22;33094;48.782;9.162;2023-06-10T01:42:07;18.30;96.20
25200;DHT22;33094;48.782;9.162;2023-06-10T01:44:33;18.30;96.00
25200;DHT22;33094;48.782;9.162;2023-06-10T01:46:59;18.30;96.10
25200;DHT22;33094;48.782;9.162;2023-06-10T01:49:25;18.30;96.20
25200;DHT22;33094;48.782;9.162;2023-06-10T01:51:51;18.40;96.10
25200;DHT22;33094;48.782;9.162;2023-06-10T01:54:17;18.50;96.00
25200;DHT22;33094;48.782;9.162;2023-06-10T01:56:42;18.40;96.00
25200;DHT22;33094;48.782;9.162;2023-06-10T01:59:08;18.50;96.00
25200;DHT22;33094;48.782;9.162;2023-06-10T02:01:33;18.30;96.10
25200;DHT22;33094;48.782;9.162;2023-06-10T02:03:59;18.20;96.30
25200;DHT22;33094;48.782;9.162;2023-06-10T02:06:24;18.20;96.40
25200;DHT22;33094;48.782;9.162;2023-06-10T02:08:50;18.00;96.40
25200;DHT22;33094;48.782;9.162;2023-06-10T02:11:15;18.00;96.40
25200;DHT22;33094;48.782;9.162;2023-06-10T02:13:41;18.10;96.40
25200;DHT22;33094;48.782;9.162;2023-06-10T02:16:06;18.10;96.30
25200;DHT22;33094;48.782;9.162;2023-06-10T02:18:32;18.10;96.50
25200;DHT22;33094;48.782;9.162;2023-06-10T02:20:58;18.00;96.60
25200;DHT22;33094;48.782;9.162;2023-06-10T02:23:24;17.90;96.60
25200;DHT22;33094;48.782;9.162;2023-06-10T02:25:50;17.80;96.80
25200;DHT22;33094;48.782;9.162;2023-06-10T02:28:16;17.80;96.90
25200;DHT22;33094;48.782;9.162;2023-06-10T02:30:41;17.80;96.90
25200;DHT22;33094;48.782;9.162;2023-06-10T02:33:07;17.70;97.10
25200;DHT22;33094;48.782;9.162;2023-06-10T02:35:37;17.70;97.10
25200;DHT22;33094;48.782;9.162;2023-06-10T02:38:02;17.60;97.00
25200;DHT22;33094;48.782;9.162;2023-06-10T02:40:29;17.70;97.00
25200;DHT22;33094;48.782;9.162;2023-06-10T02:42:54;17.70;97.10
25200;DHT22;33094;48.782;9.162;2023-06-10T02:45:20;17.70;97.30
25200;DHT22;33094;48.782;9.162;2023-06-10T02:47:45;17.70;97.10
25200;DHT22;33094;48.782;9.162;2023-06-10T02:50:11;17.80;97.10
25200;DHT22;33094;48.782;9.162;2023-06-10T02:52:37;17.90;97.10
25200;DHT22;33094;48.782;9.162;2023-06-10T02:55:02;17.80;97.20
25200;DHT22;33094;48.782;9.162;2023-06-10T02:57:28;17.80;97.20
25200;DHT22;33094;48.782;9.162;2023-06-10T02:59:53;17.80;97.10
25200;DHT22;33094;48.782;9.162;2023-06-10T03:02:19;17.90;97.10
25200;DHT22;33094;48.782;9.162;2023-06-10T03:04:45;17.70;97.30
25200;DHT22;33094;48.782;9.162;2023-06-10T03:07:10;17.70;97.40
25200;DHT22;33094;48.782;9.162;2023-06-10T03:09:36;17.60;97.40
25200;DHT22;33094;48.782;9.162;2023-06-10T03:12:02;17.60;97.60
25200;DHT22;33094;48.782;9.162;2023-06-10T03:14:27;17.50;97.60
25200;DHT22;33094;48.782;9.162;2023-06-10T03:16:53;17.50;98.00
25200;DHT22;33094;48.782;9.162;2023-06-10T03:19:19;17.40;97.70
25200;DHT22;33094;48.782;9.162;2023-06-10T03:21:49;17.30;97.70
25200;DHT22;33094;48.782;9.162;2023-06-10T03:24:15;17.30;97.60
25200;DHT22;33094;48.782;9.162;2023-06-10T03:26:41;17.30;97.70
25200;DHT22;33094;48.782;9.162;2023-06-10T03:29:07;17.30;97.70
25200;DHT22;33094;48.782;9.162;2023-06-10T03:31:32;17.30;97.60
25200;DHT22;33094;48.782;9.162;2023-06-10T03:33:58;17.40;97.60
25200;DHT22;33094;48.782;9.162;2023-06-10T03:36:23;17.40;97.70
25200;DHT22;33094;48.782;9.162;2023-06-10T03:38:49;17.50;97.60
25200;DHT22;33094;48.782;9.162;2023-06-10T03:41:17;17.70;97.30
25200;DHT22;33094;48.782;9.162;2023-06-10T03:43:42;17.60;97.10
25200;DHT22;33094;48.782;9.162;2023-06-10T03:46:09;17.50;97.10
25200;DHT22;33094;48.782;9.162;2023-06-10T03:48:35;17.40;97.10
25200;DHT22;33094;48.782;9.162;2023-06-10T03:51:01;17.60;97.20
25200;DHT22;33094;48.782;9.162;2023-06-10T03:53:27;17.40;97.30
25200;DHT22;33094;48.782;9.162;2023-06-10T03:55:52;17.30;97.40
25200;DHT22;33094;48.782;9.162;2023-06-10T03:58:18;17.40;97.50
25200;DHT22;33094;48.782;9.162;2023-06-10T04:00:43;17.40;97.50
25200;DHT22;33094;48.782;9.162;2023-06-10T04:03:10;17.40;97.60
25200;DHT22;33094;48.782;9.162;2023-06-10T04:05:40;17.20;97.70
25200;DHT22;33094;48.782;9.162;2023-06-10T04:08:05;17.20;97.70
25200;DHT22;33094;48.782;9.162;2023-06-10T04:10:33;17.30;97.70
25200;DHT22;33094;48.782;9.162;2023-06-10T04:12:59;17.30;97.80
25200;DHT22;33094;48.782;9.162;2023-06-10T04:15:24;17.20;98.00
25200;DHT22;33094;48.782;9.162;2023-06-10T04:17:50;17.10;98.00
25200;DHT22;33094;48.782;9.162;2023-06-10T04:20:16;17.10;98.20
25200;DHT22;33094;48.782;9.162;2023-06-10T04:22:41;17.10;98.20
25200;DHT22;33094;48.782;9.162;2023-06-10T04:25:08;17.20;98.10
25200;DHT22;33094;48.782;9.162;2023-06-10T04:27:34;17.30;98.20
25200;DHT22;33094;48.782;9.162;2023-06-10T04:30:00;17.30;98.00
25200;DHT22;33094;48.782;9.162;2023-06-10T04:32:25;17.40;97.70
25200;DHT22;33094;48.782;9.162;2023-06-10T04:34:51;17.50;97.50
25200;DHT22;33094;48.782;9.162;2023-06-10T04:37:17;17.50;97.70
25200;DHT22;33094;48.782;9.162;2023-06-10T04:39:43;17.40;97.80
25200;DHT22;33094;48.782;9.162;2023-06-10T04:42:09;17.60;97.90
25200;DHT22;33094;48.782;9.162;2023-06-10T04:44:34;17.50;97.90
25200;DHT22;33094;48.782;9.162;2023-06-10T04:47:00;17.40;97.80
25200;DHT22;33094;48.782;9.162;2023-06-10T04:49:26;17.40;97.80
25200;DHT22;33094;48.782;9.162;2023-06-10T04:51:51;17.50;97.80
25200;DHT22;33094;48.782;9.162;2023-06-10T04:54:17;17.50;97.90
25200;DHT22;33094;48.782;9.162;2023-06-10T04:56:42;17.60;97.70
25200;DHT22;33094;48.782;9.162;2023-06-10T04:59:08;17.80;97.80
25200;DHT22;33094;48.782;9.162;2023-06-10T05:01:33;17.90;97.40
25200;DHT22;33094;48.782;9.162;2023-06-10T05:03:59;18.00;97.40
25200;DHT22;33094;48.782;9.162;2023-06-10T05:06:24;18.10;97.40
25200;DHT22;33094;48.782;9.162;2023-06-10T05:08:50;18.00;97.30
25200;DHT22;33094;48.782;9.162;2023-06-10T05:11:15;18.10;97.00
25200;DHT22;33094;48.782;9.162;2023-06-10T05:13:41;18.20;97.00
25200;DHT22;33094;48.782;9.162;2023-06-10T05:16:07;18.30;97.00
25200;DHT22;33094;48.782;9.162;2023-06-10T05:18:33;18.30;97.00
25200;DHT22;33094;48.782;9.162;2023-06-10T05:20:58;18.20;97.10
25200;DHT22;33094;48.782;9.162;2023-06-10T05:23:24;18.10;96.90
25200;DHT22;33094;48.782;9.162;2023-06-10T05:25:49;18.10;97.00
25200;DHT22;33094;48.782;9.162;2023-06-10T05:28:15;18.20;97.00
25200;DHT22;33094;48.782;9.162;2023-06-10T05:30:41;18.30;96.90
25200;DHT22;33094;48.782;9.162;2023-06-10T05:33:06;18.40;96.70
25200;DHT22;33094;48.782;9.162;2023-06-10T05:35:32;18.50;96.60
25200;DHT22;33094;48.782;9.162;2023-06-10T05:37:57;18.60;96.70
25200;DHT22;33094;48.782;9.162;2023-06-10T05:40:23;18.70;96.70
25200;DHT22;33094;48.782;9.162;2023-06-10T05:42:48;18.80;96.70
25200;DHT22;33094;48.782;9.162;2023-06-10T05:45:14;18.90;96.60
25200;DHT22;33094;48.782;9.162;2023-06-10T05:47:39;18.90;96.50
25200;DHT22;33094;48.782;9.162;2023-06-10T05:50:06;19.00;96.30
25200;DHT22;33094;48.782;9.162;2023-06-10T05:52:35;19.10;96.30
25200;DHT22;33094;48.782;9.162;2023-06-10T05:55:04;19.30;96.00
25200;DHT22;33094;48.782;9.162;2023-06-10T05:57:30;19.40;96.00
25200;DHT22;33094;48.782;9.162;2023-06-10T05:59:55;20.30;95.40
25200;DHT22;33094;48.782;9.162;2023-06-10T06:02:21;21.30;94.10
25200;DHT22;33094;48.782;9.162;2023-06-10T06:04:46;22.20;93.00
25200;DHT22;33094;48.782;9.162;2023-06-10T06:07:12;23.30;91.80
25200;DHT22;33094;48.782;9.162;2023-06-10T06:09:38;24.30;91.00
25200;DHT22;33094;48.782;9.162;2023-06-10T06:12:03;25.00;90.20
25200;DHT22;33094;48.782;9.162;2023-06-10T06:14:30;25.40;88.80
25200;DHT22;33094;48.782;9.162;2023-06-10T06:16:56;25.90;88.50
25200;DHT22;33094;48.782;9.162;2023-06-10T06:19:21;26.40;86.90
25200;DHT22;33094;48.782;9.162;2023-06-10T06:21:47;25.90;87.30
25200;DHT22;33094;48.782;9.162;2023-06-10T06:24:12;25.10;88.80
25200;DHT22;33094;48.782;9.162;2023-06-10T06:26:38;24.30;90.40
25200;DHT22;33094;48.782;9.162;2023-06-10T06:29:03;23.60;91.20
25200;DHT22;33094;48.782;9.162;2023-06-10T06:31:29;23.10;91.80
25200;DHT22;33094;48.782;9.162;2023-06-10T06:33:55;22.70;92.30
25200;DHT22;33094;48.782;9.162;2023-06-10T06:36:20;22.30;92.60
25200;DHT22;33094;48.782;9.162;2023-06-10T06:38:46;22.00;93.10
25200;DHT22;33094;48.782;9.162;2023-06-10T06:41:11;21.90;93.40
25200;DHT22;33094;48.782;9.162;2023-06-10T06:43:37;21.80;93.50
25200;DHT22;33094;48.782;9.162;2023-06-10T06:46:02;21.60;93.40
25200;DHT22;33094;48.782;9.162;2023-06-10T06:48:28;21.70;93.50
25200;DHT22;33094;48.782;9.162;2023-06-10T06:50:53;21.70;93.70
25200;DHT22;33094;48.782;9.162;2023-06-10T06:53:21;21.80;93.70
25200;DHT22;33094;48.782;9.162;2023-06-10T06:55:47;21.80;93.60
25200;DHT22;33094;48.782;9.162;2023-06-10T06:58:12;21.60;93.80
25200;DHT22;33094;48.782;9.162;2023-06-10T07:00:38;21.70;93.70
25200;DHT22;33094;48.782;9.162;2023-06-10T07:03:03;21.70;93.70
25200;DHT22;33094;48.782;9.162;2023-06-10T07:05:29;21.80;94.00
25200;DHT22;33094;48.782;9.162;2023-06-10T07:07:56;21.90;93.70
25200;DHT22;33094;48.782;9.162;2023-06-10T07:10:22;21.90;93.50
25200;DHT22;33094;48.782;9.162;2023-06-10T07:12:47;21.90;93.70
25200;DHT22;33094;48.782;9.162;2023-06-10T07:15:13;22.00;93.40
25200;DHT22;33094;48.782;9.162;2023-06-10T07:17:39;22.00;93.30
25200;DHT22;33094;48.782;9.162;2023-06-10T07:20:04;22.00;93.20
25200;DHT22;33094;48.782;9.162;2023-06-10T07:22:30;22.00;93.30
25200;DHT22;33094;48.782;9.162;2023-06-10T07:24:55;22.20;93.20
25200;DHT22;33094;48.782;9.162;2023-06-10T07:27:21;22.30;92.90
25200;DHT22;33094;48.782;9.162;2023-06-10T07:29:46;22.30;93.00
25200;DHT22;33094;48.782;9.162;2023-06-10T07:32:12;22.50;92.90
25200;DHT22;33094;48.782;9.162;2023-06-10T07:34:37;22.60;92.90
25200;DHT22;33094;48.782;9.162;2023-06-10T07:37:03;22.60;92.60
25200;DHT22;33094;48.782;9.162;2023-06-10T07:39:28;22.50;93.10
25200;DHT22;33094;48.782;9.162;2023-06-10T07:41:54;22.60;93.00
25200;DHT22;33094;48.782;9.162;2023-06-10T07:44:22;22.80;92.80
25200;DHT22;33094;48.782;9.162;2023-06-10T07:46:48;22.90;92.40
25200;DHT22;33094;48.782;9.162;2023-06-10T07:49:13;23.10;92.50
25200;DHT22;33094;48.782;9.162;2023-06-10T07:51:39;23.20;92.40
25200;DHT22;33094;48.782;9.162;2023-06-10T07:54:05;23.40;92.10
25200;DHT22;33094;48.782;9.162;2023-06-10T07:56:30;23.60;91.80
25200;DHT22;33094;48.782;9.162;2023-06-10T07:58:57;23.70;91.80
25200;DHT22;33094;48.782;9.162;2023-06-10T08:01:22;23.90;91.50
25200;DHT22;33094;48.782;9.162;2023-06-10T08:03:48;24.00;91.40
25200;DHT22;33094;48.782;9.162;2023-06-10T08:06:14;24.00;91.40
25200;DHT22;33094;48.782;9.162;2023-06-10T08:08:39;23.80;91.70
25200;DHT22;33094;48.782;9.162;2023-06-10T08:11:11;23.90;91.80
25200;DHT22;33094;48.782;9.162;2023-06-10T08:13:37;24.10;91.40
25200;DHT22;33094;48.782;9.162;2023-06-10T08:16:02;24.30;91.00
25200;DHT22;33094;48.782;9.162;2023-06-10T08:18:28;24.70;90.70
25200;DHT22;33094;48.782;9.162;2023-06-10T08:20:54;24.60;90.40
25200;DHT22;33094;48.782;9.162;2023-06-10T08:23:19;25.00;90.20
25200;DHT22;33094;48.782;9.162;2023-06-10T08:25:45;25.60;89.70
25200;DHT22;33094;48.782;9.162;2023-06-10T08:28:10;26.40;87.80
25200;DHT22;33094;48.782;9.162;2023-06-10T08:30:36;27.00;86.80
25200;DHT22;33094;48.782;9.162;2023-06-10T08:33:01;27.80;85.20
25200;DHT22;33094;48.782;9.162;2023-06-10T08:35:27;28.30;84.00
25200;DHT22;33094;48.782;9.162;2023-06-10T08:37:52;28.50;83.20
25200;DHT22;33094;48.782;9.162;2023-06-10T08:40:18;28.30;82.70
25200;DHT22;33094;48.782;9.162;2023-06-10T08:43:05;28.40;83.20
25200;DHT22;33094;48.782;9.162;2023-06-10T08:45:30;29.20;82.00
25200;DHT22;33094;48.782;9.162;2023-06-10T08:48:00;29.80;79.90
25200;DHT22;33094;48.782;9.162;2023-06-10T08:50:28;29.50;80.80
25200;DHT22;33094;48.782;9.162;2023-06-10T08:52:56;29.70;80.20
25200;DHT22;33094;48.782;9.162;2023-06-10T08:57:51;30.30;78.00
25200;DHT22;33094;48.782;9.162;2023-06-10T09:00:18;30.50;77.50
25200;DHT22;33094;48.782;9.162;2023-06-10T09:02:43;31.00;77.70
25200;DHT22;33094;48.782;9.162;2023-06-10T09:05:09;31.10;76.80
25200;DHT22;33094;48.782;9.162;2023-06-10T09:07:35;31.30;76.50
25200;DHT22;33094;48.782;9.162;2023-06-10T09:10:01;31.20;76.20
25200;DHT22;33094;48.782;9.162;2023-06-10T09:12:29;31.10;76.60
25200;DHT22;33094;48.782;9.162;2023-06-10T09:14:55;31.20;75.50
25200;DHT22;33094;48.782;9.162;2023-06-10T09:17:20;31.00;76.10
25200;DHT22;33094;48.782;9.162;2023-06-10T09:19:46;30.60;76.40
25200;DHT22;33094;48.782;9.162;2023-06-10T09:22:11;30.60;76.90
25200;DHT22;33094;48.782;9.162;2023-06-10T09:24:37;30.70;76.90
25200;DHT22;33094;48.782;9.162;2023-06-10T09:27:04;31.30;76.20
25200;DHT22;33094;48.782;9.162;2023-06-10T09:29:32;31.90;75.40
25200;DHT22;33094;48.782;9.162;2023-06-10T09:31:57;32.00;75.30
25200;DHT22;33094;48.782;9.162;2023-06-10T09:34:24;31.90;75.30
25200;DHT22;33094;48.782;9.162;2023-06-10T09:36:50;31.60;74.90
25200;DHT22;33094;48.782;9.162;2023-06-10T09:39:17;32.00;75.00
25200;DHT22;33094;48.782;9.162;2023-06-10T09:41:43;32.50;74.20
25200;DHT22;33094;48.782;9.162;2023-06-10T09:44:13;32.80;73.60
25200;DHT22;33094;48.782;9.162;2023-06-10T09:46:42;33.20;73.50
25200;DHT22;33094;48.782;9.162;2023-06-10T09:49:07;33.60;72.70
25200;DHT22;33094;48.782;9.162;2023-06-10T09:51:33;32.80;73.30
25200;DHT22;33094;48.782;9.162;2023-06-10T09:53:59;32.80;73.00
25200;DHT22;33094;48.782;9.162;2023-06-10T09:56:34;32.80;72.80
25200;DHT22;33094;48.782;9.162;2023-06-10T09:59:00;32.80;72.90
25200;DHT22;33094;48.782;9.162;2023-06-10T10:01:26;32.40;73.60
25200;DHT22;33094;48.782;9.162;2023-06-10T10:03:51;31.70;74.70
25200;DHT22;33094;48.782;9.162;2023-06-10T10:06:17;31.50;75.00
25200;DHT22;33094;48.782;9.162;2023-06-10T10:08:44;30.20;77.40
25200;DHT22;33094;48.782;9.162;2023-06-10T10:11:10;29.30;78.80
25200;DHT22;33094;48.782;9.162;2023-06-10T10:13:35;30.10;78.70
25200;DHT22;33094;48.782;9.162;2023-06-10T10:16:03;30.60;77.00
25200;DHT22;33094;48.782;9.162;2023-06-10T10:18:29;31.00;77.30
25200;DHT22;33094;48.782;9.162;2023-06-10T10:20:56;31.70;75.30
25200;DHT22;33094;48.782;9.162;2023-06-10T10:23:26;32.70;74.40
25200;DHT22;33094;48.782;9.162;2023-06-10T10:25:54;33.20;72.50
25200;DHT22;33094;48.782;9.162;2023-06-10T10:28:21;33.40;71.20
25200;DHT22;33094;48.782;9.162;2023-06-10T10:30:52;32.50;72.70
25200;DHT22;33094;48.782;9.162;2023-06-10T10:33:36;31.50;74.30
25200;DHT22;33094;48.782;9.162;2023-06-10T10:36:04;32.00;73.40
25200;DHT22;33094;48.782;9.162;2023-06-10T10:38:30;32.70;72.50
25200;DHT22;33094;48.782;9.162;2023-06-10T10:40:56;32.90;72.80
25200;DHT22;33094;48.782;9.162;2023-06-10T10:43:25;33.40;72.10
25200;DHT22;33094;48.782;9.162;2023-06-10T10:46:00;33.70;71.50
25200;DHT22;33094;48.782;9.162;2023-06-10T10:48:26;33.70;70.80
25200;DHT22;33094;48.782;9.162;2023-06-10T10:50:57;34.00;70.80
25200;DHT22;33094;48.782;9.162;2023-06-10T10:53:26;34.20;70.20
25200;DHT22;33094;48.782;9.162;2023-06-10T10:55:58;34.50;68.80
25200;DHT22;33094;48.782;9.162;2023-06-10T10:58:24;34.40;69.80
25200;DHT22;33094;48.782;9.162;2023-06-10T11:00:49;34.70;69.60
25200;DHT22;33094;48.782;9.162;2023-06-10T11:03:15;34.80;69.30
25200;DHT22;33094;48.782;9.162;2023-06-10T11:05:43;35.10;69.00
25200;DHT22;33094;48.782;9.162;2023-06-10T11:08:13;35.10;69.70
25200;DHT22;33094;48.782;9.162;2023-06-10T11:10:39;35.30;69.10
25200;DHT22;33094;48.782;9.162;2023-06-10T11:13:23;35.10;69.00
25200;DHT22;33094;48.782;9.162;2023-06-10T11:15:50;34.20;69.80
25200;DHT22;33094;48.782;9.162;2023-06-10T11:20:52;32.80;72.00
25200;DHT22;33094;48.782;9.162;2023-06-10T11:26:10;34.20;70.30
25200;DHT22;33094;48.782;9.162;2023-06-10T11:28:37;34.30;70.30
25200;DHT22;33094;48.782;9.162;2023-06-10T11:31:02;35.10;68.40
25200;DHT22;33094;48.782;9.162;2023-06-10T11:33:28;35.50;67.90
25200;DHT22;33094;48.782;9.162;2023-06-10T11:35:54;35.60;67.60
25200;DHT22;33094;48.782;9.162;2023-06-10T11:38:20;34.70;68.40
25200;DHT22;33094;48.782;9.162;2023-06-10T11:40:49;33.70;69.50
25200;DHT22;33094;48.782;9.162;2023-06-10T11:43:18;33.30;70.20
25200;DHT22;33094;48.782;9.162;2023-06-10T11:45:43;32.90;71.50
25200;DHT22;33094;48.782;9.162;2023-06-10T11:48:09;33.90;70.60
25200;DHT22;33094;48.782;9.162;2023-06-10T11:50:35;34.80;68.50
25200;DHT22;33094;48.782;9.162;2023-06-10T11:53:00;34.50;69.00
25200;DHT22;33094;48.782;9.162;2023-06-10T11:55:40;34.30;68.80
25200;DHT22;33094;48.782;9.162;2023-06-10T11:58:11;34.00;68.70
25200;DHT22;33094;48.782;9.162;2023-06-10T12:00:43;34.10;68.50
25200;DHT22;33094;48.782;9.162;2023-06-10T12:03:08;33.70;69.40
25200;DHT22;33094;48.782;9.162;2023-06-10T12:05:34;32.50;70.70
25200;DHT22;33094;48.782;9.162;2023-06-10T12:08:09;31.40;72.80
25200;DHT22;33094;48.782;9.162;2023-06-10T12:10:39;31.60;72.30
25200;DHT22;33094;48.782;9.162;2023-06-10T12:13:05;32.40;71.30
25200;DHT22;33094;48.782;9.162;2023-06-10T12:15:30;32.30;71.00
25200;DHT22;33094;48.782;9.162;2023-06-10T12:17:57;31.80;71.80
25200;DHT22;33094;48.782;9.162;2023-06-10T12:20:30;32.40;70.70
25200;DHT22;33094;48.782;9.162;2023-06-10T12:22:56;32.70;70.00
25200;DHT22;33094;48.782;9.162;2023-06-10T12:25:25;31.60;71.30
25200;DHT22;33094;48.782;9.162;2023-06-10T12:27:52;31.00;73.00
25200;DHT22;33094;48.782;9.162;2023-06-10T12:30:21;31.30;71.90
25200;DHT22;33094;48.782;9.162;2023-06-10T12:32:47;31.40;70.30
25200;DHT22;33094;48.782;9.162;2023-06-10T12:35:15;31.10;71.80
25200;DHT22;33094;48.782;9.162;2023-06-10T12:37:42;30.80;71.00
25200;DHT22;33094;48.782;9.162;2023-06-10T12:40:08;30.10;73.20
25200;DHT22;33094;48.782;9.162;2023-06-10T12:42:36;29.30;74.80
25200;DHT22;33094;48.782;9.162;2023-06-10T12:45:02;28.90;76.00
25200;DHT22;33094;48.782;9.162;2023-06-10T12:47:29;28.70;76.20
25200;DHT22;33094;48.782;9.162;2023-06-10T12:49:57;28.60;76.30
25200;DHT22;33094;48.782;9.162;2023-06-10T12:52:22;29.30;75.80
25200;DHT22;33094;48.782;9.162;2023-06-10T12:54:48;31.20;72.70
25200;DHT22;33094;48.782;9.162;2023-06-10T12:57:13;32.90;69.60
25200;DHT22;33094;48.782;9.162;2023-06-10T12:59:39;34.20;67.50
25200;DHT22;33094;48.782;9.162;2023-06-10T13:02:05;34.50;66.70
25200;DHT22;33094;48.782;9.162;2023-06-10T13:04:31;33.00;68.00
25200;DHT22;33094;48.782;9.162;2023-06-10T13:06:56;32.00;70.50
25200;DHT22;33094;48.782;9.162;2023-06-10T13:09:22;30.80;72.30
25200;DHT22;33094;48.782;9.162;2023-06-10T13:11:47;30.00;74.10
25200;DHT22;33094;48.782;9.162;2023-06-10T13:14:13;29.80;73.90
25200;DHT22;33094;48.782;9.162;2023-06-10T13:16:38;29.70;74.50
25200;DHT22;33094;48.782;9.162;2023-06-10T13:19:04;30.10;74.20
25200;DHT22;33094;48.782;9.162;2023-06-10T13:21:31;30.60;72.90
25200;DHT22;33094;48.782;9.162;2023-06-10T13:23:57;30.90;72.80
25200;DHT22;33094;48.782;9.162;2023-06-10T13:26:22;30.80;72.20
25200;DHT22;33094;48.782;9.162;2023-06-10T13:28:48;30.70;72.50
25200;DHT22;33094;48.782;9.162;2023-06-10T13:31:13;30.70;72.90
25200;DHT22;33094;48.782;9.162;2023-06-10T13:33:39;30.90;73.00
25200;DHT22;33094;48.782;9.162;2023-06-10T13:36:05;31.00;71.80
25200;DHT22;33094;48.782;9.162;2023-06-10T13:38:31;31.10;71.80
25200;DHT22;33094;48.782;9.162;2023-06-10T13:40:56;30.70;72.20
25200;DHT22;33094;48.782;9.162;2023-06-10T13:43:22;30.80;71.90
25200;DHT22;33094;48.782;9.162;2023-06-10T13:45:47;30.90;71.70
25200;DHT22;33094;48.782;9.162;2023-06-10T13:48:13;30.40;72.40
25200;DHT22;33094;48.782;9.162;2023-06-10T13:50:38;29.80;72.90
25200;DHT22;33094;48.782;9.162;2023-06-10T13:53:04;29.60;73.50
25200;DHT22;33094;48.782;9.162;2023-06-10T13:55:29;29.30;74.00
25200;DHT22;33094;48.782;9.162;2023-06-10T13:57:55;29.10;74.20
25200;DHT22;33094;48.782;9.162;2023-06-10T14:00:20;28.80;74.40
25200;DHT22;33094;48.782;9.162;2023-06-10T14:02:46;28.70;74.70
25200;DHT22;33094;48.782;9.162;2023-06-10T14:05:12;28.70;74.60
25200;DHT22;33094;48.782;9.162;2023-06-10T14:07:37;28.70;74.30
25200;DHT22;33094;48.782;9.162;2023-06-10T14:10:03;28.90;74.30
25200;DHT22;33094;48.782;9.162;2023-06-10T14:12:28;29.40;73.80
25200;DHT22;33094;48.782;9.162;2023-06-10T14:14:54;29.50;72.80
25200;DHT22;33094;48.782;9.162;2023-06-10T14:17:19;29.90;74.00
25200;DHT22;33094;48.782;9.162;2023-06-10T14:19:45;30.30;73.10
25200;DHT22;33094;48.782;9.162;2023-06-10T14:22:10;30.50;72.40
25200;DHT22;33094;48.782;9.162;2023-06-10T14:24:36;30.70;72.00
25200;DHT22;33094;48.782;9.162;2023-06-10T14:27:02;30.10;72.90
25200;DHT22;33094;48.782;9.162;2023-06-10T14:29:28;29.30;74.10
25200;DHT22;33094;48.782;9.162;2023-06-10T14:31:54;29.00;74.40
25200;DHT22;33094;48.782;9.162;2023-06-10T14:34:20;28.80;74.90
25200;DHT22;33094;48.782;9.162;2023-06-10T14:36:45;28.70;75.30
25200;DHT22;33094;48.782;9.162;2023-06-10T14:39:11;28.90;74.90
25200;DHT22;33094;48.782;9.162;2023-06-10T14:41:36;29.20;74.30
25200;DHT22;33094;48.782;9.162;2023-06-10T14:44:02;29.40;74.60
25200;DHT22;33094;48.782;9.162;2023-06-10T14:46:28;29.60;74.30
25200;DHT22;33094;48.782;9.162;2023-06-10T14:48:53;29.70;74.50
25200;DHT22;33094;48.782;9.162;2023-06-10T14:51:19;29.40;74.70
25200;DHT22;33094;48.782;9.162;2023-06-10T14:53:46;29.10;75.40
25200;DHT22;33094;48.782;9.162;2023-06-10T14:56:12;28.70;75.50
25200;DHT22;33094;48.782;9.162;2023-06-10T14:58:37;28.40;75.90
25200;DHT22;33094;48.782;9.162;2023-06-10T15:01:03;28.30;75.90
25200;DHT22;33094;48.782;9.162;2023-06-10T15:03:29;28.10;75.50
25200;DHT22;33094;48.782;9.162;2023-06-10T15:05:54;28.20;75.60
25200;DHT22;33094;48.782;9.162;2023-06-10T15:08:20;28.60;75.90
25200;DHT22;33094;48.782;9.162;2023-06-10T15:10:45;28.90;75.60
25200;DHT22;33094;48.782;9.162;2023-06-10T15:13:13;28.90;75.80
25200;DHT22;33094;48.782;9.162;2023-06-10T15:15:39;28.90;76.30
25200;DHT22;33094;48.782;9.162;2023-06-10T15:18:04;28.90;75.60
25200;DHT22;33094;48.782;9.162;2023-06-10T15:20:30;28.70;76.00
25200;DHT22;33094;48.782;9.162;2023-06-10T15:22:55;28.60;76.70
25200;DHT22;33094;48.782;9.162;2023-06-10T15:25:21;28.60;76.70
25200;DHT22;33094;48.782;9.162;2023-06-10T15:27:46;28.50;76.70
25200;DHT22;33094;48.782;9.162;2023-06-10T15:30:12;28.60;76.80
25200;DHT22;33094;48.782;9.162;2023-06-10T15:32:37;28.70;76.40